Guymon, OK

7:26 AM CDT on October 23, 2014 (GMT -0500)
Guymon Municipal | Change Station
CLOSE
Current Station
Airport
Location: Guymon,
Elevation: 952 m
Nearby Weather Stations
Active Advisory: Dense Fog Advisory

Elev 952 m 36.68 °N, 101.51 °W | Updated 33 minutes ago

Fog
Fog
11 °C
Feels Like 11 °C
N
6
Wind Variable Wind from WSW

Today
High -- | Low -- °C
--% Chance of Precip.
Yesterday
High -- | Low -- °C
Precip. -- mm
8:00 AM 6:59 PM
Waning Crescent, 0% visible
Pressure 1016 hPa
Visibility 0.4 kilometers
Clouds
Dew Point 11 °C
Humidity 97%
Rainfall 0.0 mm
Snow Depth Not available.
UV Not available.
Pollen 4.90 out of 12
Air Quality Not available.
Flu Activity No Activity
METAR KGUY 231153Z AUTO 24003KT 1/4SM FG VV003 11/11 A3007 RMK AO2 SLP156 70001 T01110106 10172 20100 53002

More Conditions Fewer Conditions

Pressure 1016 hPa
Visibility 0.4 kilometers
Clouds
Dew Point 11 °C
Humidity 97%
Rainfall 0.0 mm
Snow Depth Not available.
UV Not available.
Pollen 4.90 out of 12
Air Quality Not available.
Flu Activity No Activity
METAR KGUY 231153Z AUTO 24003KT 1/4SM FG VV003 11/11 A3007 RMK AO2 SLP156 70001 T01110106 10172 20100 53002

More Conditions Fewer Conditions

10-Day Weather Forecast

Almanac

Astronomy

Oct. 23, 2014 Rise Set
Actual Time 8:00 AM CDT 6:59 PM CDT
Civil Twilight 7:34 AM CDT 7:25 PM CDT
Nautical Twilight 7:04 AM CDT 7:55 PM CDT
Astronomical Twilight 6:34 AM CDT 8:25 PM CDT
Moon 7:43 AM CDT 7:02 PM CDT
Length of Visible Light 11h 51m
Length of Day
10h 58m
Tomorrow will be 2m 9s shorter.
Waning Crescent, 0% of the Moon is Illuminated
Today
Waning Crescent
Oct 23
New
Oct 30
First Quarter
Nov 6
Full
Nov 14
Last Quarter

Today's Extremes

State Highs State Lows

Community

WunderPhotos

Upload Photos

1,764,211 photos uploaded!

WunderBlogs® & News

Nearby

Snow Depth

Station Depth Elevation
No new snow has been reported.

Earthquake Activity

City Distance Mag. Time & Date
No recent earthquake activity has been reported nearby.
Minimum magnitude displayed is 2.5.

Coastal Water Temperatures

Place Temperature
No Stations Reporting

Nearby Weather Stations